sensor_id;sensor_type;location;lat;lon;timestamp;pressure;altitude;pressure_sealevel;temperature;humidity
36600;BME280;35385;55.668;37.508;2023-02-10T00:00:15;100344.19;;;-2.04;100.00
36600;BME280;35385;55.668;37.508;2023-02-10T00:01:19;100328.59;;;-2.10;100.00
36600;BME280;35385;55.668;37.508;2023-02-10T00:02:20;100317.34;;;-2.15;100.00
36600;BME280;35385;55.668;37.508;2023-02-10T00:03:20;100264.84;;;-2.49;100.00
36600;BME280;35385;55.668;37.508;2023-02-10T00:04:21;100325.13;;;-2.12;100.00
36600;BME280;35385;55.668;37.508;2023-02-10T00:05:21;100329.47;;;-2.11;100.00
36600;BME280;35385;55.668;37.508;2023-02-10T00:06:23;100330.31;;;-2.09;100.00
36600;BME280;35385;55.668;37.508;2023-02-10T00:07:24;100328.66;;;-2.15;100.00
36600;BME280;35385;55.668;37.508;2023-02-10T00:08:25;100327.88;;;-2.18;100.00
36600;BME280;35385;55.668;37.508;2023-02-10T00:09:25;100312.22;;;-2.20;100.00
36600;BME280;35385;55.668;37.508;2023-02-10T00:10:26;100320.91;;;-2.18;100.00
36600;BME280;35385;55.668;37.508;2023-02-10T00:11:27;100325.34;;;-2.21;100.00
36600;BME280;35385;55.668;37.508;2023-02-10T00:12:46;100256.22;;;-2.56;100.00
36600;BME280;35385;55.668;37.508;2023-02-10T00:13:47;100321.94;;;-2.26;100.00
36600;BME280;35385;55.668;37.508;2023-02-10T00:14:47;100268.41;;;-2.55;100.00
36600;BME280;35385;55.668;37.508;2023-02-10T00:15:48;100329.53;;;-2.14;100.00
36600;BME280;35385;55.668;37.508;2023-02-10T00:16:50;100318.06;;;-2.07;100.00
36600;BME280;35385;55.668;37.508;2023-02-10T00:17:51;100321.69;;;-2.14;100.00
36600;BME280;35385;55.668;37.508;2023-02-10T00:18:51;100309.25;;;-2.03;100.00
36600;BME280;35385;55.668;37.508;2023-02-10T00:19:52;100301.56;;;-2.12;100.00
36600;BME280;35385;55.668;37.508;2023-02-10T00:20:53;100304.13;;;-2.09;100.00
36600;BME280;35385;55.668;37.508;2023-02-10T00:21:53;100311.88;;;-2.03;100.00
36600;BME280;35385;55.668;37.508;2023-02-10T00:22:54;100307.59;;;-2.07;100.00
36600;BME280;35385;55.668;37.508;2023-02-10T00:23:55;100284.41;;;-2.25;100.00
36600;BME280;35385;55.668;37.508;2023-02-10T00:24:55;100310.50;;;-2.21;100.00
36600;BME280;35385;55.668;37.508;2023-02-10T00:25:56;100304.50;;;-2.27;100.00
36600;BME280;35385;55.668;37.508;2023-02-10T00:26:56;100300.88;;;-2.20;100.00
36600;BME280;35385;55.668;37.508;2023-02-10T00:27:57;100296.50;;;-2.20;100.00
36600;BME280;35385;55.668;37.508;2023-02-10T00:28:57;100299.28;;;-2.27;100.00
36600;BME280;35385;55.668;37.508;2023-02-10T00:29:58;100298.25;;;-2.20;100.00
36600;BME280;35385;55.668;37.508;2023-02-10T00:30:58;100279.31;;;-2.31;100.00
36600;BME280;35385;55.668;37.508;2023-02-10T00:31:59;100305.34;;;-2.25;100.00
36600;BME280;35385;55.668;37.508;2023-02-10T00:32:59;100300.16;;;-2.28;100.00
36600;BME280;35385;55.668;37.508;2023-02-10T00:34:00;100286.22;;;-2.29;100.00
36600;BME280;35385;55.668;37.508;2023-02-10T00:35:00;100290.34;;;-2.17;100.00
36600;BME280;35385;55.668;37.508;2023-02-10T00:36:08;100301.75;;;-2.20;100.00
36600;BME280;35385;55.668;37.508;2023-02-10T00:37:09;100230.56;;;-2.37;100.00
36600;BME280;35385;55.668;37.508;2023-02-10T00:38:10;100269.41;;;-2.17;100.00
36600;BME280;35385;55.668;37.508;2023-02-10T00:39:15;100216.69;;;-2.40;100.00
36600;BME280;35385;55.668;37.508;2023-02-10T00:40:16;100261.44;;;-2.13;100.00
36600;BME280;35385;55.668;37.508;2023-02-10T00:41:18;100271.75;;;-2.05;100.00
36600;BME280;35385;55.668;37.508;2023-02-10T00:42:19;100277.75;;;-2.00;100.00
36600;BME280;35385;55.668;37.508;2023-02-10T00:43:20;100268.63;;;-2.22;100.00
36600;BME280;35385;55.668;37.508;2023-02-10T00:44:20;100274.81;;;-2.26;100.00
36600;BME280;35385;55.668;37.508;2023-02-10T00:45:21;100212.53;;;-2.51;100.00
36600;BME280;35385;55.668;37.508;2023-02-10T00:46:22;100243.78;;;-2.44;100.00
36600;BME280;35385;55.668;37.508;2023-02-10T00:47:23;100173.91;;;-2.79;100.00
36600;BME280;35385;55.668;37.508;2023-02-10T00:48:26;100260.75;;;-2.21;100.00
36600;BME280;35385;55.668;37.508;2023-02-10T00:49:26;100268.50;;;-2.16;100.00
36600;BME280;35385;55.668;37.508;2023-02-10T00:50:27;100271.75;;;-2.05;100.00
36600;BME280;35385;55.668;37.508;2023-02-10T00:51:27;100261.25;;;-2.03;100.00
36600;BME280;35385;55.668;37.508;2023-02-10T00:52:28;100258.78;;;-2.11;100.00
36600;BME280;35385;55.668;37.508;2023-02-10T00:53:29;100264.88;;;-2.10;100.00
36600;BME280;35385;55.668;37.508;2023-02-10T00:54:29;100267.81;;;-2.24;100.00
36600;BME280;35385;55.668;37.508;2023-02-10T00:55:30;100259.25;;;-2.32;100.00
36600;BME280;35385;55.668;37.508;2023-02-10T00:56:30;100254.69;;;-2.23;100.00
36600;BME280;35385;55.668;37.508;2023-02-10T00:57:31;100258.16;;;-2.22;100.00
36600;BME280;35385;55.668;37.508;2023-02-10T00:58:32;100228.78;;;-2.35;100.00
36600;BME280;35385;55.668;37.508;2023-02-10T00:59:32;100252.09;;;-2.24;100.00
36600;BME280;35385;55.668;37.508;2023-02-10T01:00:33;100187.53;;;-2.64;100.00
36600;BME280;35385;55.668;37.508;2023-02-10T01:01:33;100262.50;;;-2.21;100.00
36600;BME280;35385;55.668;37.508;2023-02-10T01:02:34;100255.34;;;-2.13;100.00
36600;BME280;35385;55.668;37.508;2023-02-10T01:03:34;100255.16;;;-2.04;100.00
36600;BME280;35385;55.668;37.508;2023-02-10T01:04:35;100239.91;;;-2.25;100.00
36600;BME280;35385;55.668;37.508;2023-02-10T01:05:36;100240.72;;;-2.22;100.00
36600;BME280;35385;55.668;37.508;2023-02-10T01:06:37;100233.63;;;-2.17;100.00
36600;BME280;35385;55.668;37.508;2023-02-10T01:07:38;100230.88;;;-2.12;100.00
36600;BME280;35385;55.668;37.508;2023-02-10T01:08:38;100233.44;;;-2.09;100.00
36600;BME280;35385;55.668;37.508;2023-02-10T01:09:39;100188.28;;;-2.17;100.00
36600;BME280;35385;55.668;37.508;2023-02-10T01:10:40;100224.38;;;-1.94;100.00
36600;BME280;35385;55.668;37.508;2023-02-10T01:11:40;100223.72;;;-2.02;100.00
36600;BME280;35385;55.668;37.508;2023-02-10T01:13:01;100219.44;;;-2.06;100.00
36600;BME280;35385;55.668;37.508;2023-02-10T01:14:16;100209.88;;;-2.09;100.00
36600;BME280;35385;55.668;37.508;2023-02-10T01:15:17;100220.81;;;-2.30;100.00
36600;BME280;35385;55.668;37.508;2023-02-10T01:16:19;100237.13;;;-2.18;100.00
36600;BME280;35385;55.668;37.508;2023-02-10T01:17:20;100227.34;;;-2.09;100.00
36600;BME280;35385;55.668;37.508;2023-02-10T01:18:21;100232.88;;;-2.23;100.00
36600;BME280;35385;55.668;37.508;2023-02-10T01:19:21;100220.63;;;-2.21;100.00
36600;BME280;35385;55.668;37.508;2023-02-10T01:20:23;100226.19;;;-2.36;100.00
36600;BME280;35385;55.668;37.508;2023-02-10T01:21:23;100234.25;;;-2.45;100.00
36600;BME280;35385;55.668;37.508;2023-02-10T01:22:24;100225.66;;;-2.52;100.00
36600;BME280;35385;55.668;37.508;2023-02-10T01:23:24;100213.41;;;-2.50;100.00
36600;BME280;35385;55.668;37.508;2023-02-10T01:24:25;100210.56;;;-2.39;100.00
36600;BME280;35385;55.668;37.508;2023-02-10T01:25:25;100219.34;;;-2.43;100.00
36600;BME280;35385;55.668;37.508;2023-02-10T01:26:26;100210.56;;;-2.39;100.00
36600;BME280;35385;55.668;37.508;2023-02-10T01:27:29;100213.13;;;-2.38;100.00
36600;BME280;35385;55.668;37.508;2023-02-10T01:28:29;100191.72;;;-2.57;100.00
36600;BME280;35385;55.668;37.508;2023-02-10T01:29:30;100201.94;;;-2.44;100.00
36600;BME280;35385;55.668;37.508;2023-02-10T01:30:30;100195.19;;;-2.55;100.00
36600;BME280;35385;55.668;37.508;2023-02-10T01:31:31;100196.97;;;-2.57;100.00
36600;BME280;35385;55.668;37.508;2023-02-10T01:32:31;100160.63;;;-2.70;100.00
36600;BME280;35385;55.668;37.508;2023-02-10T01:33:32;100151.50;;;-2.91;100.00
36600;BME280;35385;55.668;37.508;2023-02-10T01:34:33;100195.44;;;-2.67;100.00
36600;BME280;35385;55.668;37.508;2023-02-10T01:35:37;100193.66;;;-2.65;100.00
36600;BME280;35385;55.668;37.508;2023-02-10T01:36:37;100189.13;;;-2.58;100.00
36600;BME280;35385;55.668;37.508;2023-02-10T01:37:38;100176.03;;;-2.57;100.00
36600;BME280;35385;55.668;37.508;2023-02-10T01:38:38;100179.31;;;-2.45;100.00
36600;BME280;35385;55.668;37.508;2023-02-10T01:39:39;100180.88;;;-2.38;100.00
36600;BME280;35385;55.668;37.508;2023-02-10T01:40:40;100181.00;;;-2.44;100.00
36600;BME280;35385;55.668;37.508;2023-02-10T01:41:40;100169.16;;;-2.61;100.00
36600;BME280;35385;55.668;37.508;2023-02-10T01:42:41;100183.03;;;-2.59;100.00
36600;BME280;35385;55.668;37.508;2023-02-10T01:44:05;100176.88;;;-2.55;100.00
36600;BME280;35385;55.668;37.508;2023-02-10T01:45:16;100190.88;;;-2.57;100.00
36600;BME280;35385;55.668;37.508;2023-02-10T01:46:17;100182.25;;;-2.61;100.00
36600;BME280;35385;55.668;37.508;2023-02-10T01:47:18;100110.88;;;-3.07;100.00
36600;BME280;35385;55.668;37.508;2023-02-10T01:48:24;100183.13;;;-2.62;100.00
36600;BME280;35385;55.668;37.508;2023-02-10T01:49:30;100167.56;;;-2.68;100.00
36600;BME280;35385;55.668;37.508;2023-02-10T01:51:03;100174.50;;;-2.67;100.00
36600;BME280;35385;55.668;37.508;2023-02-10T01:53:10;100176.78;;;-2.50;100.00
36600;BME280;35385;55.668;37.508;2023-02-10T01:54:15;100179.38;;;-2.48;100.00
36600;BME280;35385;55.668;37.508;2023-02-10T01:55:21;100170.63;;;-2.47;100.00
36600;BME280;35385;55.668;37.508;2023-02-10T01:56:24;100171.28;;;-2.38;100.00
36600;BME280;35385;55.668;37.508;2023-02-10T01:57:24;100170.41;;;-2.38;100.00
36600;BME280;35385;55.668;37.508;2023-02-10T01:58:27;100166.28;;;-2.48;100.00
36600;BME280;35385;55.668;37.508;2023-02-10T01:59:32;100167.31;;;-2.57;100.00
36600;BME280;35385;55.668;37.508;2023-02-10T02:00:35;100116.47;;;-2.84;100.00
36600;BME280;35385;55.668;37.508;2023-02-10T02:01:36;100162.91;;;-2.55;100.00
36600;BME280;35385;55.668;37.508;2023-02-10T02:02:36;100162.53;;;-2.37;100.00
36600;BME280;35385;55.668;37.508;2023-02-10T02:03:37;100160.03;;;-2.43;100.00
36600;BME280;35385;55.668;37.508;2023-02-10T02:04:58;100168.84;;;-2.45;100.00
36600;BME280;35385;55.668;37.508;2023-02-10T02:05:58;100165.50;;;-2.54;100.00
36600;BME280;35385;55.668;37.508;2023-02-10T02:06:59;100062.91;;;-3.05;100.00
36600;BME280;35385;55.668;37.508;2023-02-10T02:08:04;100133.66;;;-2.74;100.00
36600;BME280;35385;55.668;37.508;2023-02-10T02:09:06;100176.16;;;-2.61;100.00
36600;BME280;35385;55.668;37.508;2023-02-10T02:10:06;100184.00;;;-2.61;100.00
36600;BME280;35385;55.668;37.508;2023-02-10T02:11:28;100160.16;;;-2.47;100.00
36600;BME280;35385;55.668;37.508;2023-02-10T02:15:40;100158.59;;;-2.58;100.00
36600;BME280;35385;55.668;37.508;2023-02-10T02:24:50;100148.31;;;-2.65;100.00
36600;BME280;35385;55.668;37.508;2023-02-10T02:32:48;100082.47;;;-3.26;100.00
36600;BME280;35385;55.668;37.508;2023-02-10T02:33:51;100131.41;;;-2.89;100.00
36600;BME280;35385;55.668;37.508;2023-02-10T02:35:07;100113.34;;;-3.03;100.00
36600;BME280;35385;55.668;37.508;2023-02-10T02:36:13;100115.00;;;-2.97;100.00
36600;BME280;35385;55.668;37.508;2023-02-10T02:37:21;100096.97;;;-3.09;100.00
36600;BME280;35385;55.668;37.508;2023-02-10T02:38:23;100072.84;;;-3.24;100.00
36600;BME280;35385;55.668;37.508;2023-02-10T02:39:23;100107.16;;;-2.97;100.00
36600;BME280;35385;55.668;37.508;2023-02-10T02:40:24;100110.41;;;-2.86;100.00
36600;BME280;35385;55.668;37.508;2023-02-10T02:41:25;100099.09;;;-2.87;100.00
36600;BME280;35385;55.668;37.508;2023-02-10T02:42:29;100119.91;;;-2.82;100.00
36600;BME280;35385;55.668;37.508;2023-02-10T02:43:30;100101.66;;;-2.85;100.00
36600;BME280;35385;55.668;37.508;2023-02-10T02:44:30;100099.00;;;-2.82;100.00
36600;BME280;35385;55.668;37.508;2023-02-10T02:45:58;100100.69;;;-2.79;100.00
36600;BME280;35385;55.668;37.508;2023-02-10T02:49:47;100089.44;;;-2.83;100.00
36600;BME280;35385;55.668;37.508;2023-02-10T02:52:18;100088.53;;;-2.82;100.00
36600;BME280;35385;55.668;37.508;2023-02-10T02:53:28;100087.69;;;-2.84;100.00
36600;BME280;35385;55.668;37.508;2023-02-10T02:55:03;100095.50;;;-2.81;100.00
36600;BME280;35385;55.668;37.508;2023-02-10T02:56:34;100094.56;;;-2.78;100.00
36600;BME280;35385;55.668;37.508;2023-02-10T02:57:52;100089.63;;;-2.92;100.00
36600;BME280;35385;55.668;37.508;2023-02-10T02:59:40;100084.66;;;-3.04;100.00
36600;BME280;35385;55.668;37.508;2023-02-10T03:00:38;100079.34;;;-3.01;100.00
36600;BME280;35385;55.668;37.508;2023-02-10T03:01:58;100073.22;;;-3.00;100.00
36600;BME280;35385;55.668;37.508;2023-02-10T03:03:01;100074.91;;;-2.96;100.00
36600;BME280;35385;55.668;37.508;2023-02-10T03:04:02;100077.56;;;-2.99;100.00
36600;BME280;35385;55.668;37.508;2023-02-10T03:05:03;100063.59;;;-2.98;100.00
36600;BME280;35385;55.668;37.508;2023-02-10T03:06:04;100025.63;;;-3.14;100.00
36600;BME280;35385;55.668;37.508;2023-02-10T03:07:04;100058.19;;;-2.89;100.00
36600;BME280;35385;55.668;37.508;2023-02-10T03:08:05;100060.75;;;-2.88;100.00
36600;BME280;35385;55.668;37.508;2023-02-10T03:09:06;100065.13;;;-2.88;100.00
36600;BME280;35385;55.668;37.508;2023-02-10T03:10:06;100078.44;;;-2.99;100.00
36600;BME280;35385;55.668;37.508;2023-02-10T03:11:07;100053.31;;;-3.04;100.00
36600;BME280;35385;55.668;37.508;2023-02-10T03:12:08;100074.84;;;-2.93;100.00
36600;BME280;35385;55.668;37.508;2023-02-10T03:13:09;100053.75;;;-2.86;100.00
36600;BME280;35385;55.668;37.508;2023-02-10T03:14:09;100068.38;;;-2.77;100.00
36600;BME280;35385;55.668;37.508;2023-02-10T03:15:10;100048.38;;;-2.78;100.00
36600;BME280;35385;55.668;37.508;2023-02-10T03:16:11;100052.81;;;-2.83;100.00
36600;BME280;35385;55.668;37.508;2023-02-10T03:17:12;100047.66;;;-2.86;100.00
36600;BME280;35385;55.668;37.508;2023-02-10T03:18:12;100045.78;;;-2.79;100.00
36600;BME280;35385;55.668;37.508;2023-02-10T03:19:13;100056.31;;;-2.84;100.00
36600;BME280;35385;55.668;37.508;2023-02-10T03:20:14;100053.72;;;-2.84;100.00
36600;BME280;35385;55.668;37.508;2023-02-10T03:21:15;100034.56;;;-2.85;100.00
36600;BME280;35385;55.668;37.508;2023-02-10T03:22:15;100038.91;;;-2.85;100.00
36600;BME280;35385;55.668;37.508;2023-02-10T03:23:16;100044.97;;;-2.83;100.00
36600;BME280;35385;55.668;37.508;2023-02-10T03:24:17;100047.38;;;-2.74;100.00
36600;BME280;35385;55.668;37.508;2023-02-10T03:25:17;99994.84;;;-3.02;100.00
36600;BME280;35385;55.668;37.508;2023-02-10T03:26:18;99985.53;;;-3.13;100.00
36600;BME280;35385;55.668;37.508;2023-02-10T03:27:18;100037.16;;;-2.85;100.00
36600;BME280;35385;55.668;37.508;2023-02-10T03:28:19;99990.81;;;-3.16;100.00
36600;BME280;35385;55.668;37.508;2023-02-10T03:29:20;100029.66;;;-3.00;100.00
36600;BME280;35385;55.668;37.508;2023-02-10T03:30:20;100026.94;;;-2.95;100.00
36600;BME280;35385;55.668;37.508;2023-02-10T03:31:21;99968.41;;;-3.27;100.00
36600;BME280;35385;55.668;37.508;2023-02-10T03:32:22;100014.56;;;-2.87;100.00
36600;BME280;35385;55.668;37.508;2023-02-10T03:33:22;100020.50;;;-2.79;100.00
36600;BME280;35385;55.668;37.508;2023-02-10T03:34:23;100012.59;;;-2.76;100.00
36600;BME280;35385;55.668;37.508;2023-02-10T03:35:23;100006.56;;;-2.79;100.00
36600;BME280;35385;55.668;37.508;2023-02-10T03:36:24;100009.88;;;-2.73;100.00
36600;BME280;35385;55.668;37.508;2023-02-10T03:37:24;99998.47;;;-2.70;100.00
36600;BME280;35385;55.668;37.508;2023-02-10T03:38:28;100018.44;;;-2.66;100.00
36600;BME280;35385;55.668;37.508;2023-02-10T03:39:28;99941.81;;;-3.05;100.00
36600;BME280;35385;55.668;37.508;2023-02-10T03:40:29;99997.03;;;-2.82;100.00
36600;BME280;35385;55.668;37.508;2023-02-10T03:41:29;100003.78;;;-2.73;100.00
36600;BME280;35385;55.668;37.508;2023-02-10T03:42:30;99992.44;;;-2.72;100.00
36600;BME280;35385;55.668;37.508;2023-02-10T03:43:30;99995.16;;;-2.77;100.00
36600;BME280;35385;55.668;37.508;2023-02-10T03:44:31;99995.28;;;-2.81;100.00
36600;BME280;35385;55.668;37.508;2023-02-10T03:45:32;99986.34;;;-2.73;100.00
36600;BME280;35385;55.668;37.508;2023-02-10T03:46:32;99995.78;;;-2.66;100.00
36600;BME280;35385;55.668;37.508;2023-02-10T03:47:33;99983.78;;;-2.74;100.00
36600;BME280;35385;55.668;37.508;2023-02-10T03:48:33;99984.72;;;-2.77;100.00
36600;BME280;35385;55.668;37.508;2023-02-10T03:49:34;99939.22;;;-3.07;100.00
36600;BME280;35385;55.668;37.508;2023-02-10T03:50:35;99975.41;;;-2.89;100.00
36600;BME280;35385;55.668;37.508;2023-02-10T03:51:35;99977.00;;;-2.83;100.00
36600;BME280;35385;55.668;37.508;2023-02-10T03:52:36;99986.66;;;-2.87;100.00
36600;BME280;35385;55.668;37.508;2023-02-10T03:53:36;99978.09;;;-2.92;100.00
36600;BME280;35385;55.668;37.508;2023-02-10T03:54:37;99980.66;;;-2.90;100.00
36600;BME280;35385;55.668;37.508;2023-02-10T03:55:40;99965.84;;;-2.90;100.00
36600;BME280;35385;55.668;37.508;2023-02-10T03:56:40;99974.16;;;-2.74;100.00
36600;BME280;35385;55.668;37.508;2023-02-10T03:57:41;99955.19;;;-2.82;100.00
36600;BME280;35385;55.668;37.508;2023-02-10T03:58:41;99975.88;;;-2.73;100.00
36600;BME280;35385;55.668;37.508;2023-02-10T03:59:42;99978.75;;;-2.83;100.00
36600;BME280;35385;55.668;37.508;2023-02-10T04:00:42;99970.97;;;-2.87;100.00
36600;BME280;35385;55.668;37.508;2023-02-10T04:01:43;99958.91;;;-2.92;100.00
36600;BME280;35385;55.668;37.508;2023-02-10T04:02:44;99956.97;;;-2.84;100.00
36600;BME280;35385;55.668;37.508;2023-02-10T04:03:46;99939.41;;;-2.77;100.00
36600;BME280;35385;55.668;37.508;2023-02-10T04:04:46;99964.19;;;-2.58;100.00
36600;BME280;35385;55.668;37.508;2023-02-10T04:05:47;99965.31;;;-2.68;100.00
36600;BME280;35385;55.668;37.508;2023-02-10T04:06:48;99960.47;;;-2.85;100.00
36600;BME280;35385;55.668;37.508;2023-02-10T04:07:48;99968.34;;;-2.87;100.00
36600;BME280;35385;55.668;37.508;2023-02-10T04:08:49;99964.00;;;-2.86;100.00
36600;BME280;35385;55.668;37.508;2023-02-10T04:09:50;99937.31;;;-3.00;100.00
36600;BME280;35385;55.668;37.508;2023-02-10T04:10:50;99953.53;;;-2.86;100.00
36600;BME280;35385;55.668;37.508;2023-02-10T04:11:51;99963.66;;;-2.72;100.00
36600;BME280;35385;55.668;37.508;2023-02-10T04:12:51;99959.41;;;-2.75;100.00
36600;BME280;35385;55.668;37.508;2023-02-10T04:13:54;99957.63;;;-2.74;100.00
36600;BME280;35385;55.668;37.508;2023-02-10T04:14:54;99973.59;;;-2.87;100.00
36600;BME280;35385;55.668;37.508;2023-02-10T04:16:03;99933.63;;;-2.92;100.00
36600;BME280;35385;55.668;37.508;2023-02-10T04:17:04;99961.22;;;-2.78;100.00
36600;BME280;35385;55.668;37.508;2023-02-10T04:18:05;99951.69;;;-2.81;100.00
36600;BME280;35385;55.668;37.508;2023-02-10T04:19:06;99954.56;;;-2.92;100.00
36600;BME280;35385;55.668;37.508;2023-02-10T04:20:07;99903.97;;;-3.28;100.00
36600;BME280;35385;55.668;37.508;2023-02-10T04:21:09;99948.88;;;-3.10;100.00
36600;BME280;35385;55.668;37.508;2023-02-10T04:22:12;99957.47;;;-3.05;100.00
36600;BME280;35385;55.668;37.508;2023-02-10T04:23:12;99946.78;;;-2.95;100.00
36600;BME280;35385;55.668;37.508;2023-02-10T04:24:13;99944.41;;;-3.05;100.00
36600;BME280;35385;55.668;37.508;2023-02-10T04:25:14;99950.28;;;-2.96;100.00
36600;BME280;35385;55.668;37.508;2023-02-10T04:26:14;99936.47;;;-3.02;100.00
36600;BME280;35385;55.668;37.508;2023-02-10T04:27:15;99913.25;;;-3.14;100.00
36600;BME280;35385;55.668;37.508;2023-02-10T04:28:15;99955.25;;;-2.85;100.00
36600;BME280;35385;55.668;37.508;2023-02-10T04:29:16;99945.19;;;-3.02;100.00
36600;BME280;35385;55.668;37.508;2023-02-10T04:30:17;99939.28;;;-3.10;100.00
36600;BME280;35385;55.668;37.508;2023-02-10T04:31:17;99937.41;;;-3.03;100.00
36600;BME280;35385;55.668;37.508;2023-02-10T04:32:18;99934.06;;;-3.10;100.00
36600;BME280;35385;55.668;37.508;2023-02-10T04:33:19;99933.13;;;-3.07;100.00
36600;BME280;35385;55.668;37.508;2023-02-10T04:34:20;99924.44;;;-3.08;100.00
36600;BME280;35385;55.668;37.508;2023-02-10T04:35:20;99913.34;;;-3.17;100.00
36600;BME280;35385;55.668;37.508;2023-02-10T04:36:21;99927.09;;;-3.09;100.00
36600;BME280;35385;55.668;37.508;2023-02-10T04:37:21;99918.44;;;-3.13;100.00
36600;BME280;35385;55.668;37.508;2023-02-10T04:38:22;99925.47;;;-3.16;100.00
36600;BME280;35385;55.668;37.508;2023-02-10T04:39:23;99924.59;;;-3.15;100.00
36600;BME280;35385;55.668;37.508;2023-02-10T04:40:24;99931.63;;;-3.17;100.00
36600;BME280;35385;55.668;37.508;2023-02-10T04:41:24;99925.63;;;-3.23;100.00
36600;BME280;35385;55.668;37.508;2023-02-10T04:42:25;99923.78;;;-3.17;100.00
36600;BME280;35385;55.668;37.508;2023-02-10T04:43:30;99916.09;;;-3.24;100.00
36600;BME280;35385;55.668;37.508;2023-02-10T04:44:30;99861.94;;;-3.56;100.00
36600;BME280;35385;55.668;37.508;2023-02-10T04:45:31;99923.97;;;-3.27;100.00
36600;BME280;35385;55.668;37.508;2023-02-10T04:46:32;99928.31;;;-3.26;100.00
36600;BME280;35385;55.668;37.508;2023-02-10T04:47:32;99933.59;;;-3.29;100.00
36600;BME280;35385;55.668;37.508;2023-02-10T04:48:33;99934.50;;;-3.30;100.00
36600;BME280;35385;55.668;37.508;2023-02-10T04:49:34;99894.06;;;-3.52;100.00
36600;BME280;35385;55.668;37.508;2023-02-10T04:50:37;99927.53;;;-3.31;100.00
36600;BME280;35385;55.668;37.508;2023-02-10T04:51:38;99906.78;;;-3.35;100.00
36600;BME280;35385;55.668;37.508;2023-02-10T04:52:39;99924.63;;;-3.17;100.00
36600;BME280;35385;55.668;37.508;2023-02-10T04:53:40;99939.41;;;-3.16;100.00
36600;BME280;35385;55.668;37.508;2023-02-10T04:54:43;99932.66;;;-3.25;100.00
36600;BME280;35385;55.668;37.508;2023-02-10T04:55:44;99884.25;;;-3.41;100.00
36600;BME280;35385;55.668;37.508;2023-02-10T04:56:44;99917.53;;;-3.10;100.00
36600;BME280;35385;55.668;37.508;2023-02-10T04:57:45;99929.91;;;-3.18;100.00
36600;BME280;35385;55.668;37.508;2023-02-10T04:58:46;99938.88;;;-3.32;100.00
36600;BME280;35385;55.668;37.508;2023-02-10T04:59:46;99931.16;;;-3.35;100.00
36600;BME280;35385;55.668;37.508;2023-02-10T05:00:47;99923.28;;;-3.33;100.00
36600;BME280;35385;55.668;37.508;2023-02-10T05:01:48;99927.47;;;-3.26;100.00
36600;BME280;35385;55.668;37.508;2023-02-10T05:02:48;99905.97;;;-3.39;100.00
36600;BME280;35385;55.668;37.508;2023-02-10T05:03:49;99910.34;;;-3.39;100.00
36600;BME280;35385;55.668;37.508;2023-02-10T05:04:49;99921.25;;;-3.21;100.00
36600;BME280;35385;55.668;37.508;2023-02-10T05:05:50;99873.25;;;-3.55;100.00
36600;BME280;35385;55.668;37.508;2023-02-10T05:06:53;99914.56;;;-3.32;100.00
36600;BME280;35385;55.668;37.508;2023-02-10T05:07:58;99920.72;;;-3.36;100.00
36600;BME280;35385;55.668;37.508;2023-02-10T05:08:58;99933.94;;;-3.44;100.00
36600;BME280;35385;55.668;37.508;2023-02-10T05:09:59;99875.91;;;-3.58;100.00
36600;BME280;35385;55.668;37.508;2023-02-10T05:10:59;99923.34;;;-3.36;100.00
36600;BME280;35385;55.668;37.508;2023-02-10T05:12:00;99911.84;;;-3.29;100.00
36600;BME280;35385;55.668;37.508;2023-02-10T05:13:01;99917.00;;;-3.26;100.00
36600;BME280;35385;55.668;37.508;2023-02-10T05:14:01;99868.75;;;-3.48;100.00
36600;BME280;35385;55.668;37.508;2023-02-10T05:15:02;99880.94;;;-3.47;100.00
36600;BME280;35385;55.668;37.508;2023-02-10T05:16:04;99907.63;;;-3.35;100.00
36600;BME280;35385;55.668;37.508;2023-02-10T05:17:04;99890.19;;;-3.33;100.00
36600;BME280;35385;55.668;37.508;2023-02-10T05:18:05;99753.00;;;-4.26;100.00
36600;BME280;35385;55.668;37.508;2023-02-10T05:19:05;99895.59;;;-3.42;100.00
36600;BME280;35385;55.668;37.508;2023-02-10T05:20:07;99873.72;;;-3.76;100.00
36600;BME280;35385;55.668;37.508;2023-02-10T05:21:09;99918.41;;;-3.50;100.00
36600;BME280;35385;55.668;37.508;2023-02-10T05:22:10;99900.88;;;-3.45;100.00
36600;BME280;35385;55.668;37.508;2023-02-10T05:23:10;99869.88;;;-3.60;100.00
36600;BME280;35385;55.668;37.508;2023-02-10T05:24:11;99902.50;;;-3.39;100.00
36600;BME280;35385;55.668;37.508;2023-02-10T05:25:12;99903.31;;;-3.36;100.00
36600;BME280;35385;55.668;37.508;2023-02-10T05:26:12;99885.19;;;-3.45;100.00
36600;BME280;35385;55.668;37.508;2023-02-10T05:27:13;99885.13;;;-3.42;100.00
36600;BME280;35385;55.668;37.508;2023-02-10T05:28:13;99890.41;;;-3.45;100.00
36600;BME280;35385;55.668;37.508;2023-02-10T05:29:15;99880.25;;;-3.57;100.00
36600;BME280;35385;55.668;37.508;2023-02-10T05:30:15;99786.53;;;-4.08;100.00
36600;BME280;35385;55.668;37.508;2023-02-10T05:31:16;99880.09;;;-3.49;100.00
36600;BME280;35385;55.668;37.508;2023-02-10T05:32:16;99817.22;;;-3.79;100.00
36600;BME280;35385;55.668;37.508;2023-02-10T05:33:17;99883.28;;;-3.37;100.00
36600;BME280;35385;55.668;37.508;2023-02-10T05:34:17;99889.41;;;-3.38;100.00
36600;BME280;35385;55.668;37.508;2023-02-10T05:35:18;99900.66;;;-3.34;100.00
36600;BME280;35385;55.668;37.508;2023-02-10T05:36:19;99884.25;;;-3.41;100.00
36600;BME280;35385;55.668;37.508;2023-02-10T05:37:20;99880.84;;;-3.44;100.00
36600;BME280;35385;55.668;37.508;2023-02-10T05:38:20;99843.31;;;-3.79;100.00
36600;BME280;35385;55.668;37.508;2023-02-10T05:39:21;99867.22;;;-3.59;100.00
36600;BME280;35385;55.668;37.508;2023-02-10T05:40:25;99846.47;;;-3.63;100.00
36600;BME280;35385;55.668;37.508;2023-02-10T05:41:25;99846.63;;;-3.71;100.00